Time;durP1;ratioP1;P1;durP2;ratioP2;P2;SDS_P1;SDS_P2;PMS_P1;PMS_P2;Temp;Humidity;BMP_temperature;BMP_pressure;BME280_temperature;BME280_humidity;BME280_pressure;Samples;Min_cycle;Max_cycle;Signal;HPM_P1;HPM_P2
2024/01/05 00:01:52;;;;;;;4.60;2.50;;;;;;;0.29;100.00;99797.22;105582;1253;69208;-58
2024/01/05 00:04:20;;;;;;;6.30;3.20;;;;;;;0.27;100.00;99802.37;105602;1255;69132;-58
2024/01/05 00:06:49;;;;;;;5.40;3.00;;;;;;;0.26;100.00;99803.77;105566;1257;74185;-58
2024/01/05 00:09:17;;;;;;;6.40;2.80;;;;;;;0.25;100.00;99802.74;105632;1252;81663;-58
2024/01/05 00:11:47;;;;;;;7.00;3.80;;;;;;;0.27;100.00;99811.48;105524;1252;72174;-58
2024/01/05 00:14:16;;;;;;;7.60;3.30;;;;;;;0.28;100.00;99812.17;105565;1253;69163;-59
2024/01/05 00:16:45;;;;;;;5.80;2.40;;;;;;;0.31;100.00;99819.89;105568;1255;69192;-58
2024/01/05 00:19:13;;;;;;;5.00;2.80;;;;;;;0.33;100.00;99822.28;105653;1257;72832;-58
2024/01/05 00:21:41;;;;;;;6.00;2.80;;;;;;;0.34;100.00;99827.61;105571;1256;81579;-58
2024/01/05 00:24:09;;;;;;;4.90;2.80;;;;;;;0.33;100.00;99834.14;105550;1253;70792;-58
2024/01/05 00:26:41;;;;;;;6.60;2.90;;;;;;;0.32;100.00;99831.23;105517;1255;69151;-58
2024/01/05 00:29:10;;;;;;;8.10;2.90;;;;;;;0.32;100.00;99835.35;105586;1256;69381;-58
2024/01/05 00:31:39;;;;;;;4.50;2.40;;;;;;;0.33;100.00;99835.51;105590;1254;72865;-58
2024/01/05 00:34:07;;;;;;;5.90;2.70;;;;;;;0.34;100.00;99837.75;105595;1254;80635;-58
2024/01/05 00:36:36;;;;;;;4.20;2.40;;;;;;;0.33;100.00;99836.02;105540;1256;72136;-58
2024/01/05 00:39:04;;;;;;;4.30;2.80;;;;;;;0.34;100.00;99830.87;105646;1253;69169;-58
2024/01/05 00:41:33;;;;;;;6.20;4.20;;;;;;;0.35;100.00;99827.61;105594;1255;69192;-58
2024/01/05 00:44:01;;;;;;;5.70;2.50;;;;;;;0.37;100.00;99827.25;105541;1255;73172;-58
2024/01/05 00:46:29;;;;;;;5.60;2.70;;;;;;;0.38;100.00;99835.48;105599;1255;82587;-58
2024/01/05 00:48:57;;;;;;;5.40;2.40;;;;;;;0.37;100.00;99832.75;105561;1253;72302;-58
2024/01/05 00:51:26;;;;;;;5.00;2.50;;;;;;;0.37;100.00;99833.96;105587;1255;69124;-58
2024/01/05 00:53:55;;;;;;;3.70;2.10;;;;;;;0.39;100.00;99837.73;105536;1255;69197;-58
2024/01/05 00:56:24;;;;;;;3.30;2.70;;;;;;;0.41;100.00;99838.05;105592;1256;73541;-60
2024/01/05 00:58:52;;;;;;;4.50;2.10;;;;;;;0.40;100.00;99842.19;105534;1256;81653;-60
2024/01/05 01:01:20;;;;;;;4.50;2.40;;;;;;;0.39;100.00;99841.69;105599;1254;72682;-59
2024/01/05 01:03:49;;;;;;;4.90;2.40;;;;;;;0.39;100.00;99839.79;105578;1256;69142;-59
2024/01/05 01:06:17;;;;;;;6.20;2.70;;;;;;;0.39;100.00;99838.59;105577;1253;69125;-59
2024/01/05 01:08:46;;;;;;;5.40;2.50;;;;;;;0.39;100.00;99835.15;105591;1253;73253;-60
2024/01/05 01:11:15;;;;;;;4.70;2.40;;;;;;;0.40;100.00;99827.92;105626;1252;81901;-60
2024/01/05 01:13:44;;;;;;;4.90;2.00;;;;;;;0.39;100.00;99833.95;105569;1256;71772;-59
2024/01/05 01:16:12;;;;;;;3.40;1.90;;;;;;;0.39;100.00;99838.75;105623;1256;69160;-59
2024/01/05 01:18:41;;;;;;;6.80;2.20;;;;;;;0.40;100.00;99832.05;105666;1255;69209;-59
2024/01/05 01:21:09;;;;;;;3.90;2.50;;;;;;;0.41;100.00;99828.77;105645;1253;73116;-59
2024/01/05 01:23:37;;;;;;;4.60;2.60;;;;;;;0.43;100.00;99826.88;105531;1256;82844;-60
2024/01/05 01:26:06;;;;;;;4.50;2.40;;;;;;;0.44;100.00;99839.42;105566;1254;71476;-59
2024/01/05 01:28:34;;;;;;;4.20;2.10;;;;;;;0.46;100.00;99843.36;105539;1253;69176;-59
2024/01/05 01:31:02;;;;;;;5.60;1.70;;;;;;;0.46;100.00;99849.71;105623;1255;69212;-60
2024/01/05 01:33:30;;;;;;;5.60;2.40;;;;;;;0.47;100.00;99848.86;105586;1253;72677;-60
2024/01/05 01:35:59;;;;;;;6.10;3.00;;;;;;;0.48;100.00;99846.96;105587;1256;81575;-59
2024/01/05 01:38:27;;;;;;;5.80;2.50;;;;;;;0.48;100.00;99844.39;105603;1254;71913;-59
2024/01/05 01:40:56;;;;;;;5.60;2.60;;;;;;;0.51;100.00;99853.82;105525;1254;69092;-60
2024/01/05 01:43:25;;;;;;;4.70;2.40;;;;;;;0.53;100.00;99855.55;105630;1253;69412;-59
2024/01/05 01:45:57;;;;;;;3.50;2.30;;;;;;;0.53;100.00;99852.79;105653;1254;73764;-59
2024/01/05 01:48:26;;;;;;;4.20;2.40;;;;;;;0.53;100.00;99859.48;105612;1255;81590;-59
2024/01/05 01:50:55;;;;;;;5.20;3.10;;;;;;;0.54;100.00;99861.20;105595;1254;71346;-59
2024/01/05 01:53:25;;;;;;;6.30;3.10;;;;;;;0.54;100.00;99868.42;105590;1255;69120;-59
2024/01/05 01:55:53;;;;;;;5.60;2.30;;;;;;;0.56;100.00;99861.54;105638;1253;69098;-59
2024/01/05 01:58:21;;;;;;;4.90;2.20;;;;;;;0.58;100.00;99858.08;105682;1253;73248;-59
2024/01/05 02:00:51;;;;;;;4.50;2.30;;;;;;;0.60;100.00;99855.83;105619;1256;80929;-59
2024/01/05 02:03:19;;;;;;;5.30;2.30;;;;;;;0.62;100.00;99850.50;105563;1256;72207;-59
2024/01/05 02:05:48;;;;;;;8.30;2.30;;;;;;;0.63;100.00;99853.77;105649;1255;69099;-59
2024/01/05 02:08:16;;;;;;;2.60;1.70;;;;;;;0.63;100.00;99866.14;105607;1255;69289;-59
2024/01/05 02:10:44;;;;;;;4.30;2.00;;;;;;;0.61;100.00;99867.35;105556;1255;74333;-59
2024/01/05 02:13:12;;;;;;;4.70;2.00;;;;;;;0.58;99.91;99871.48;105555;1252;81914;-59
2024/01/05 02:15:41;;;;;;;4.20;2.00;;;;;;;0.56;99.99;99879.25;105571;1253;72256;-59
2024/01/05 02:18:13;;;;;;;3.40;2.20;;;;;;;0.54;99.91;99870.31;105541;1253;69151;-59
2024/01/05 02:20:46;;;;;;;5.50;2.60;;;;;;;0.54;99.99;99864.81;105576;1253;69216;-59
2024/01/05 02:23:25;;;;;;;5.50;2.40;;;;;;;0.55;100.00;99862.23;105568;1252;73518;-59
2024/01/05 02:25:55;;;;;;;4.30;2.70;;;;;;;0.55;100.00;99861.54;105593;1252;81268;-59
2024/01/05 02:28:24;;;;;;;5.40;2.60;;;;;;;0.56;100.00;99863.43;105592;1255;71087;-59
2024/01/05 02:30:56;;;;;;;6.20;2.70;;;;;;;0.56;100.00;99859.30;105606;1253;69128;-59
2024/01/05 02:33:25;;;;;;;5.50;2.70;;;;;;;0.57;100.00;99858.60;105580;1253;69175;-59
2024/01/05 02:35:53;;;;;;;3.20;2.10;;;;;;;0.58;100.00;99863.77;105571;1252;73685;-59
2024/01/05 02:38:22;;;;;;;6.40;3.00;;;;;;;0.59;100.00;99858.77;105582;1252;81496;-59
2024/01/05 02:40:50;;;;;;;5.30;3.20;;;;;;;0.61;100.00;99851.36;105548;1253;70533;-59
2024/01/05 02:43:18;;;;;;;4.70;2.50;;;;;;;0.61;100.00;99848.45;105587;1254;69149;-59
2024/01/05 02:45:46;;;;;;;7.50;3.50;;;;;;;0.61;100.00;99848.95;105623;1256;69163;-59
2024/01/05 02:48:14;;;;;;;7.40;3.20;;;;;;;0.60;99.97;99852.56;105574;1253;74029;-59
2024/01/05 02:50:43;;;;;;;5.50;3.10;;;;;;;0.60;100.00;99845.69;105580;1252;81471;-59
2024/01/05 02:53:11;;;;;;;6.40;3.40;;;;;;;0.61;100.00;99848.26;105589;1255;72899;-59
2024/01/05 02:55:39;;;;;;;5.00;2.80;;;;;;;0.60;100.00;99849.30;105565;1253;69075;-59
2024/01/05 02:58:07;;;;;;;8.00;4.10;;;;;;;0.59;100.00;99851.73;105529;1255;69195;-59
2024/01/05 03:00:35;;;;;;;5.80;3.10;;;;;;;0.58;100.00;99855.33;105527;1253;72065;-59
2024/01/05 03:03:04;;;;;;;8.30;4.00;;;;;;;0.57;100.00;99850.35;105609;1255;81491;-59
2024/01/05 03:05:34;;;;;;;6.40;3.60;;;;;;;0.56;100.00;99847.96;105595;1252;70044;-59
2024/01/05 03:08:03;;;;;;;5.80;3.80;;;;;;;0.54;100.00;99847.96;105521;1252;69110;-59
2024/01/05 03:10:31;;;;;;;15.40;8.90;;;;;;;0.54;100.00;99843.50;105660;1253;69139;-59
2024/01/05 03:12:59;;;;;;;22.00;10.70;;;;;;;0.53;100.00;99838.70;105605;1254;72852;-59
2024/01/05 03:15:27;;;;;;;14.10;8.70;;;;;;;0.53;100.00;99831.81;105574;1255;81361;-59
2024/01/05 03:17:56;;;;;;;10.40;5.10;;;;;;;0.52;100.00;99818.75;105554;1253;73117;-59
2024/01/05 03:20:24;;;;;;;10.20;5.00;;;;;;;0.53;100.00;99815.84;105539;1256;69192;-59
2024/01/05 03:22:52;;;;;;;10.80;5.00;;;;;;;0.53;100.00;99816.01;105571;1256;69257;-59
2024/01/05 03:25:20;;;;;;;8.50;5.10;;;;;;;0.53;100.00;99818.41;105561;1253;73735;-59
2024/01/05 03:27:48;;;;;;;8.80;4.80;;;;;;;0.53;100.00;99814.80;105546;1255;81710;-59
2024/01/05 03:30:17;;;;;;;8.10;5.20;;;;;;;0.53;100.00;99813.27;105598;1253;73014;-59
2024/01/05 03:32:45;;;;;;;6.80;4.20;;;;;;;0.53;100.00;99808.77;105586;1254;69088;-59
2024/01/05 03:35:14;;;;;;;7.10;3.70;;;;;;;0.52;100.00;99807.92;105592;1255;69184;-59
2024/01/05 03:37:42;;;;;;;8.60;2.70;;;;;;;0.53;100.00;99812.90;105590;1254;73675;-59
2024/01/05 03:40:10;;;;;;;6.70;3.00;;;;;;;0.50;100.00;99818.07;105554;1255;81452;-59
2024/01/05 03:42:38;;;;;;;5.50;2.90;;;;;;;0.51;100.00;99830.27;105583;1253;72029;-59
2024/01/05 03:45:07;;;;;;;5.60;2.80;;;;;;;0.55;100.00;99825.61;105516;1255;69611;-59
2024/01/05 03:47:36;;;;;;;4.40;2.60;;;;;;;0.55;100.00;99818.21;105602;1254;69166;-59
2024/01/05 03:50:05;;;;;;;5.50;2.80;;;;;;;0.55;100.00;99824.23;105574;1255;73375;-59
2024/01/05 03:52:33;;;;;;;6.00;2.70;;;;;;;0.56;100.00;99823.02;105612;1253;80685;-59
2024/01/05 03:55:01;;;;;;;4.20;2.30;;;;;;;0.58;100.00;99813.56;105515;1255;71609;-59
2024/01/05 03:57:30;;;;;;;5.10;3.00;;;;;;;0.57;100.00;99812.70;105611;1255;69713;-59
2024/01/05 03:59:58;;;;;;;5.10;3.00;;;;;;;0.55;100.00;99807.90;105636;1255;69189;-59
2024/01/05 04:02:27;;;;;;;4.60;2.70;;;;;;;0.54;100.00;99803.27;105615;1256;72891;-59
2024/01/05 04:04:55;;;;;;;6.80;3.00;;;;;;;0.51;100.00;99794.52;105562;1255;81435;-59
2024/01/05 04:07:23;;;;;;;5.40;2.60;;;;;;;0.48;100.00;99795.91;105570;1253;71543;-59
2024/01/05 04:09:52;;;;;;;4.00;2.30;;;;;;;0.46;100.00;99803.83;105598;1253;69082;-59
2024/01/05 04:12:20;;;;;;;6.60;2.50;;;;;;;0.43;100.00;99800.91;105557;1253;69182;-59
2024/01/05 04:14:48;;;;;;;4.90;3.00;;;;;;;0.40;100.00;99811.42;105573;1253;73216;-59
2024/01/05 04:17:17;;;;;;;7.90;4.30;;;;;;;0.38;100.00;99817.45;105621;1256;81483;-59
2024/01/05 04:19:45;;;;;;;6.90;3.20;;;;;;;0.36;100.00;99825.89;105530;1253;73045;-59
2024/01/05 04:22:13;;;;;;;4.60;2.70;;;;;;;0.37;100.00;99830.34;105569;1253;69088;-59
2024/01/05 04:24:41;;;;;;;9.20;4.20;;;;;;;0.37;100.00;99834.98;105559;1256;69193;-59
2024/01/05 04:27:09;;;;;;;7.80;4.70;;;;;;;0.36;100.00;99834.65;105557;1253;72752;-59
2024/01/05 04:29:38;;;;;;;7.00;3.60;;;;;;;0.37;100.00;99840.33;105569;1252;81188;-59
2024/01/05 04:32:06;;;;;;;4.30;2.60;;;;;;;0.37;100.00;99844.78;105600;1253;70718;-59
2024/01/05 04:34:35;;;;;;;5.60;2.80;;;;;;;0.37;100.00;99852.35;105554;1252;69195;-59
2024/01/05 04:37:03;;;;;;;5.40;2.80;;;;;;;0.35;100.00;99857.50;105578;1253;69234;-59
2024/01/05 04:39:31;;;;;;;7.30;3.10;;;;;;;0.34;100.00;99857.85;105572;1252;72859;-59
2024/01/05 04:42:00;;;;;;;4.70;3.00;;;;;;;0.32;100.00;99860.77;105596;1255;81677;-59
2024/01/05 04:44:28;;;;;;;6.10;3.00;;;;;;;0.32;100.00;99862.51;105464;1253;71914;-59
2024/01/05 04:46:56;;;;;;;6.60;3.30;;;;;;;0.31;100.00;99858.39;105555;1255;69115;-59
2024/01/05 04:49:26;;;;;;;5.40;2.30;;;;;;;0.31;100.00;99862.00;105520;1255;69189;-59
2024/01/05 04:51:54;;;;;;;5.90;2.90;;;;;;;0.33;100.00;99857.34;105573;1254;72943;-59
2024/01/05 04:54:23;;;;;;;7.00;3.20;;;;;;;0.33;100.00;99850.98;105624;1255;82683;-59
2024/01/05 04:56:51;;;;;;;11.20;4.40;;;;;;;0.34;100.00;99844.79;105554;1253;73864;-59
2024/01/05 04:59:20;;;;;;;9.30;4.30;;;;;;;0.34;100.00;99848.73;105525;1255;69142;-59
2024/01/05 05:01:49;;;;;;;10.70;4.40;;;;;;;0.35;100.00;99849.77;105587;1256;69177;-59
2024/01/05 05:04:17;;;;;;;9.80;4.70;;;;;;;0.37;100.00;99840.65;105590;1256;73293;-59
2024/01/05 05:06:46;;;;;;;8.90;4.40;;;;;;;0.39;100.00;99840.30;105615;1253;81972;-59
2024/01/05 05:09:14;;;;;;;6.50;3.40;;;;;;;0.39;100.00;99845.29;105644;1254;73310;-59
2024/01/05 05:11:42;;;;;;;6.90;3.40;;;;;;;0.41;100.00;99853.17;105537;1253;69179;-59
2024/01/05 05:14:11;;;;;;;4.40;2.90;;;;;;;0.43;100.00;99849.21;105637;1253;69169;-59
2024/01/05 05:16:40;;;;;;;8.00;3.20;;;;;;;0.46;100.00;99846.29;105491;1255;71642;-59
2024/01/05 05:19:08;;;;;;;6.90;3.20;;;;;;;0.47;100.00;99849.02;105597;1253;82191;-59
2024/01/05 05:21:36;;;;;;;6.00;3.40;;;;;;;0.43;100.00;99845.78;105585;1255;71346;-59
2024/01/05 05:24:05;;;;;;;5.70;3.10;;;;;;;0.42;100.00;99844.23;105557;1253;69138;-59
2024/01/05 05:26:33;;;;;;;6.80;3.40;;;;;;;0.41;100.00;99851.45;105530;1255;69182;-58
2024/01/05 05:29:01;;;;;;;7.10;3.70;;;;;;;0.41;100.00;99852.14;105537;1252;73452;-58
2024/01/05 05:31:29;;;;;;;8.00;4.50;;;;;;;0.42;100.00;99848.36;105542;1255;81578;-56
2024/01/05 05:33:58;;;;;;;9.20;4.80;;;;;;;0.43;100.00;99846.30;105563;1256;71792;-57
2024/01/05 05:36:26;;;;;;;7.90;4.20;;;;;;;0.43;100.00;99841.83;105564;1253;69122;-57
2024/01/05 05:38:54;;;;;;;8.40;4.60;;;;;;;0.41;100.00;99836.16;105551;1253;69184;-57
2024/01/05 05:41:22;;;;;;;7.30;4.10;;;;;;;0.37;100.00;99830.86;105536;1253;72884;-57
2024/01/05 05:43:51;;;;;;;6.80;3.50;;;;;;;0.35;100.00;99818.32;105563;1256;81354;-57
2024/01/05 05:46:19;;;;;;;7.60;4.20;;;;;;;0.33;100.00;99822.62;105595;1253;70552;-57
2024/01/05 05:48:47;;;;;;;6.90;3.60;;;;;;;0.30;100.00;99829.35;105486;1253;69148;-58
2024/01/05 05:51:16;;;;;;;5.90;3.00;;;;;;;0.27;100.00;99826.45;105549;1255;69842;-57
2024/01/05 05:53:44;;;;;;;6.40;3.50;;;;;;;0.23;100.00;99819.41;105443;1253;72835;-57
2024/01/05 05:56:12;;;;;;;6.70;3.20;;;;;;;0.22;100.00;99814.60;105624;1255;81353;-56
2024/01/05 05:58:40;;;;;;;4.90;2.90;;;;;;;0.20;100.00;99813.58;105580;1253;72344;-56
2024/01/05 06:01:09;;;;;;;6.80;3.00;;;;;;;0.16;100.00;99813.09;105544;1252;69094;-55
2024/01/05 06:03:39;;;;;;;5.90;3.00;;;;;;;0.14;100.00;99817.73;105651;1256;69084;-58
2024/01/05 06:06:21;;;;;;;5.50;3.00;;;;;;;0.12;100.00;99816.88;105694;1253;75198;-59
2024/01/05 06:08:51;;;;;;;7.20;3.10;;;;;;;0.10;100.00;99815.49;105628;1253;80450;-59
2024/01/05 06:11:19;;;;;;;6.40;3.40;;;;;;;0.09;100.00;99808.80;105647;1255;72523;-58
2024/01/05 06:13:47;;;;;;;5.00;2.70;;;;;;;0.10;100.00;99809.67;105569;1253;69187;-57
2024/01/05 06:16:16;;;;;;;7.00;2.90;;;;;;;0.10;100.00;99808.45;105689;1255;69142;-53
2024/01/05 06:18:44;;;;;;;5.40;2.90;;;;;;;0.10;100.00;99811.38;105716;1253;74273;-57
2024/01/05 06:21:12;;;;;;;7.50;3.00;;;;;;;0.11;100.00;99811.90;105569;1253;81582;-56
2024/01/05 06:23:41;;;;;;;6.20;3.50;;;;;;;0.12;100.00;99812.24;105553;1256;71694;-58
2024/01/05 06:26:09;;;;;;;5.00;2.90;;;;;;;0.10;100.00;99814.98;105566;1256;69229;-57
2024/01/05 06:28:37;;;;;;;4.40;2.80;;;;;;;0.11;100.00;99805.20;105589;1253;68963;-57
2024/01/05 06:31:06;;;;;;;5.00;3.00;;;;;;;0.12;100.00;99806.05;105561;1255;72937;-57
2024/01/05 06:33:34;;;;;;;8.60;3.50;;;;;;;0.14;100.00;99800.02;105614;1255;81914;-58
2024/01/05 06:36:02;;;;;;;7.40;3.10;;;;;;;0.15;100.00;99800.87;105952;1253;72801;-57
2024/01/05 06:38:31;;;;;;;6.80;2.80;;;;;;;0.16;100.00;99801.23;105564;1252;69160;-57
2024/01/05 06:40:59;;;;;;;6.20;2.90;;;;;;;0.15;100.00;99804.33;105515;1257;69240;-57
2024/01/05 06:43:27;;;;;;;7.20;3.30;;;;;;;0.15;100.00;99807.59;105645;1253;73487;-57
2024/01/05 06:45:55;;;;;;;5.20;3.20;;;;;;;0.16;100.00;99810.33;105583;1256;82261;-59
2024/01/05 06:48:23;;;;;;;6.00;2.90;;;;;;;0.16;100.00;99813.59;105548;1253;72714;-57
2024/01/05 06:50:52;;;;;;;8.50;3.20;;;;;;;0.16;100.00;99807.92;105683;1253;69134;-57
2024/01/05 06:53:20;;;;;;;6.40;3.50;;;;;;;0.17;100.00;99804.83;105578;1255;69171;-58
2024/01/05 06:55:48;;;;;;;4.20;2.90;;;;;;;0.17;100.00;99803.45;105698;1253;73158;-59
2024/01/05 06:58:17;;;;;;;5.00;3.00;;;;;;;0.19;100.00;99805.17;105622;1255;81113;-59
2024/01/05 07:00:45;;;;;;;6.90;3.30;;;;;;;0.22;100.00;99802.23;105563;1252;70890;-57
2024/01/05 07:03:13;;;;;;;7.20;3.00;;;;;;;0.24;100.00;99805.83;105722;1253;69086;-59
2024/01/05 07:05:41;;;;;;;5.60;3.30;;;;;;;0.24;100.00;99805.14;105497;1256;69141;-59
2024/01/05 07:08:10;;;;;;;7.00;3.50;;;;;;;0.25;100.00;99808.75;105524;1254;73775;-59
2024/01/05 07:10:38;;;;;;;3.80;2.80;;;;;;;0.26;100.00;99808.40;105554;1255;82012;-59
2024/01/05 07:13:09;;;;;;;6.00;3.10;;;;;;;0.27;100.00;99811.30;105513;1255;72325;-58
2024/01/05 07:15:37;;;;;;;5.40;3.30;;;;;;;0.27;100.00;99813.89;105436;1255;69556;-59
2024/01/05 07:18:05;;;;;;;6.50;3.70;;;;;;;0.26;100.00;99812.01;105512;1253;69135;-59
2024/01/05 07:20:34;;;;;;;8.20;3.90;;;;;;;0.27;100.00;99805.30;105706;1255;72547;-59
2024/01/05 07:23:02;;;;;;;8.70;4.20;;;;;;;0.27;100.00;99804.60;105451;1253;82839;-59
2024/01/05 07:25:31;;;;;;;6.00;4.20;;;;;;;0.29;100.00;99798.76;105463;1253;72358;-59
2024/01/05 07:27:59;;;;;;;9.70;4.00;;;;;;;0.31;100.00;99790.85;105430;1253;69157;-59
2024/01/05 07:30:27;;;;;;;7.40;3.70;;;;;;;0.31;100.00;99791.19;105560;1255;69214;-59
2024/01/05 07:32:56;;;;;;;7.30;3.60;;;;;;;0.32;100.00;99790.85;105525;1253;74217;-59
2024/01/05 07:35:24;;;;;;;5.20;3.40;;;;;;;0.31;100.00;99785.70;105518;1255;81682;-59
2024/01/05 07:37:53;;;;;;;6.10;3.50;;;;;;;0.31;100.00;99786.90;105507;1256;71976;-59
2024/01/05 07:40:22;;;;;;;6.40;3.20;;;;;;;0.33;100.00;99790.66;105599;1253;69154;-59
2024/01/05 07:42:50;;;;;;;5.90;3.40;;;;;;;0.36;100.00;99793.91;105485;1255;69212;-60
2024/01/05 07:45:18;;;;;;;7.60;3.40;;;;;;;0.36;100.00;99804.05;105657;1256;74231;-59
2024/01/05 07:47:47;;;;;;;5.60;3.00;;;;;;;0.36;100.00;99804.05;105544;1256;82994;-59
2024/01/05 07:50:16;;;;;;;5.10;3.20;;;;;;;0.38;100.00;99800.77;105560;1253;72089;-59
2024/01/05 07:52:44;;;;;;;4.80;3.10;;;;;;;0.39;100.00;99794.93;105486;1252;69154;-59
2024/01/05 07:55:12;;;;;;;6.30;3.30;;;;;;;0.41;100.00;99789.77;105530;1255;69115;-59
2024/01/05 07:57:41;;;;;;;5.70;3.00;;;;;;;0.42;100.00;99788.21;105491;1253;71977;-59
2024/01/05 08:00:14;;;;;;;4.80;2.80;;;;;;;0.43;100.00;99787.69;105519;1256;81619;-59
2024/01/05 08:02:42;;;;;;;6.50;3.50;;;;;;;0.44;100.00;99789.40;105560;1253;71844;-58
2024/01/05 08:05:11;;;;;;;7.20;4.00;;;;;;;0.44;100.00;99790.95;105540;1253;69062;-59
2024/01/05 08:07:40;;;;;;;9.00;3.60;;;;;;;0.44;100.00;99793.02;105537;1255;69187;-59
2024/01/05 08:10:09;;;;;;;5.80;3.80;;;;;;;0.47;100.00;99793.00;105552;1252;72876;-59
2024/01/05 08:12:38;;;;;;;8.90;4.40;;;;;;;0.49;100.00;99792.30;105536;1256;81819;-59
2024/01/05 08:15:07;;;;;;;18.80;9.10;;;;;;;0.52;100.00;99798.30;105474;1254;72864;-59
2024/01/05 08:17:35;;;;;;;12.10;6.50;;;;;;;0.55;100.00;99802.74;105596;1254;69119;-59
2024/01/05 08:20:05;;;;;;;10.10;6.30;;;;;;;0.60;100.00;99810.79;105506;1255;69186;-59
2024/01/05 08:22:34;;;;;;;8.30;4.80;;;;;;;0.63;100.00;99806.14;105565;1253;72802;-58
2024/01/05 08:25:03;;;;;;;9.00;5.30;;;;;;;0.65;100.00;99804.73;105566;1253;81850;-59
2024/01/05 08:27:31;;;;;;;9.70;4.60;;;;;;;0.67;100.00;99804.23;105530;1253;71889;-59
2024/01/05 08:29:59;;;;;;;8.10;5.00;;;;;;;0.71;100.00;99800.08;105561;1253;69174;-59
2024/01/05 08:32:28;;;;;;;9.10;4.20;;;;;;;0.74;100.00;99804.69;105579;1255;69161;-59
2024/01/05 08:34:56;;;;;;;12.40;7.00;;;;;;;0.76;100.00;99804.52;105597;1253;73833;-59
2024/01/05 08:37:25;;;;;;;8.50;4.60;;;;;;;0.78;100.00;99803.80;105578;1256;81754;-59
2024/01/05 08:39:53;;;;;;;9.70;5.00;;;;;;;0.80;100.00;99801.20;105590;1253;72487;-59
2024/01/05 08:42:21;;;;;;;10.60;5.00;;;;;;;0.83;100.00;99800.67;105498;1253;69169;-59
2024/01/05 08:44:52;;;;;;;10.60;5.10;;;;;;;0.85;100.00;99798.07;105480;1256;69187;-58
2024/01/05 08:47:21;;;;;;;7.90;4.60;;;;;;;0.87;99.96;99794.45;105449;1255;71922;-58
2024/01/05 08:49:50;;;;;;;23.50;10.30;;;;;;;0.87;99.97;99786.52;105467;1256;82020;-59
2024/01/05 08:52:18;;;;;;;13.30;5.50;;;;;;;0.89;99.87;99789.63;105549;1253;72950;-58
2024/01/05 08:54:46;;;;;;;19.20;7.90;;;;;;;0.92;99.96;99790.98;105490;1254;69194;-58
2024/01/05 08:57:17;;;;;;;10.70;6.20;;;;;;;0.95;100.00;99796.98;105538;1256;69141;-58
2024/01/05 08:59:45;;;;;;;27.00;12.60;;;;;;;0.97;99.96;99797.64;105497;1252;73010;-58
2024/01/05 09:02:13;;;;;;;19.00;9.60;;;;;;;0.99;99.92;99800.04;105559;1255;82685;-58
2024/01/05 09:04:42;;;;;;;12.00;6.40;;;;;;;1.02;99.91;99802.77;105508;1253;72095;-59
2024/01/05 09:07:11;;;;;;;12.00;6.20;;;;;;;1.06;99.97;99800.33;105492;1253;69129;-58
2024/01/05 09:09:39;;;;;;;14.60;7.80;;;;;;;1.11;99.85;99805.27;105592;1253;69106;-58
2024/01/05 09:12:08;;;;;;;31.60;15.00;;;;;;;1.16;99.93;99801.80;105593;1255;73048;-59
2024/01/05 09:14:37;;;;;;;14.70;7.20;;;;;;;1.19;99.71;99797.30;105558;1256;81635;-58
2024/01/05 09:17:05;;;;;;;14.80;7.60;;;;;;;1.21;99.60;99798.98;105581;1253;71018;-58
2024/01/05 09:19:33;;;;;;;12.50;6.60;;;;;;;1.25;99.50;99803.44;105468;1256;69132;-58
2024/01/05 09:22:02;;;;;;;10.90;6.10;;;;;;;1.27;99.23;99804.45;105539;1256;69186;-58
2024/01/05 09:24:31;;;;;;;11.20;5.70;;;;;;;1.27;99.36;99801.17;105553;1254;73141;-58
2024/01/05 09:27:02;;;;;;;9.90;5.80;;;;;;;1.26;99.05;99801.54;105552;1253;80437;-58
2024/01/05 09:29:31;;;;;;;7.10;4.50;;;;;;;1.24;98.91;99809.13;105537;1255;70273;-58
2024/01/05 09:32:00;;;;;;;7.70;4.40;;;;;;;1.22;98.95;99816.04;105544;1252;69162;-58
2024/01/05 09:34:28;;;;;;;6.40;4.40;;;;;;;1.22;98.83;99820.84;105548;1255;69146;-58
2024/01/05 09:36:57;;;;;;;19.90;8.40;;;;;;;1.21;98.79;99820.69;105544;1253;74178;-59
2024/01/05 09:39:25;;;;;;;10.60;5.40;;;;;;;1.19;98.66;99819.15;105518;1256;81472;-59
2024/01/05 09:41:53;;;;;;;8.10;4.90;;;;;;;1.18;98.64;99819.85;105508;1253;72005;-58
2024/01/05 09:44:22;;;;;;;12.10;6.80;;;;;;;1.18;98.68;99821.39;105455;1255;69146;-58
2024/01/05 09:46:50;;;;;;;12.30;7.70;;;;;;;1.21;98.66;99824.30;105523;1254;69199;-58
2024/01/05 09:49:20;;;;;;;8.40;4.70;;;;;;;1.23;98.64;99828.06;105536;1256;73425;-58
2024/01/05 09:51:51;;;;;;;7.90;4.90;;;;;;;1.24;98.58;99830.12;105491;1253;81675;-58
2024/01/05 09:54:20;;;;;;;9.20;5.00;;;;;;;1.26;98.50;99831.31;105510;1255;71800;-58
2024/01/05 09:56:49;;;;;;;15.30;7.80;;;;;;;1.29;98.52;99834.21;105495;1253;69112;-58
2024/01/05 09:59:19;;;;;;;15.00;7.60;;;;;;;1.31;98.51;99833.69;105552;1255;69188;-58
2024/01/05 10:01:49;;;;;;;12.10;6.00;;;;;;;1.34;98.52;99827.28;105564;1256;71831;-59
2024/01/05 10:04:19;;;;;;;8.60;5.20;;;;;;;1.38;98.57;99817.61;105569;1255;81522;-58
2024/01/05 10:06:58;;;;;;;10.90;5.90;;;;;;;1.40;98.32;99810.52;105493;1256;70854;-58
2024/01/05 10:09:30;;;;;;;11.60;5.80;;;;;;;1.43;98.33;99801.55;105533;1255;69221;-59
2024/01/05 10:11:58;;;;;;;8.80;5.10;;;;;;;1.46;98.53;99799.11;105557;1256;69175;-59
2024/01/05 10:14:27;;;;;;;8.80;5.30;;;;;;;1.51;98.51;99786.34;105490;1253;73118;-59
2024/01/05 10:17:08;;;;;;;12.90;6.90;;;;;;;1.55;98.37;99785.94;105587;1255;81155;-58
2024/01/05 10:19:40;;;;;;;12.00;7.00;;;;;;;1.63;98.48;99774.50;105541;1253;72034;-59
2024/01/05 10:22:14;;;;;;;9.80;5.90;;;;;;;1.73;98.60;99760.61;105521;1256;69155;-59
2024/01/05 10:24:42;;;;;;;7.90;5.50;;;;;;;1.86;98.61;99759.94;105532;1255;69185;-58
2024/01/05 10:27:12;;;;;;;50.40;17.60;;;;;;;1.95;98.52;99753.61;105579;1253;73380;-58
2024/01/05 10:29:44;;;;;;;;;;;;;;;2.09;98.33;99753.12;105571;1253;81963;-58
2024/01/05 10:32:14;;;;;;;24.80;10.50;;;;;;;2.27;97.95;99747.70;105528;1253;73022;-58
2024/01/05 10:34:50;;;;;;;30.40;13.10;;;;;;;2.44;98.08;99742.98;105500;1253;69199;-59
2024/01/05 10:37:21;;;;;;;8.50;5.60;;;;;;;2.60;97.75;99737.73;105500;1254;69174;-58
2024/01/05 10:39:52;;;;;;;13.90;7.70;;;;;;;2.70;97.85;99732.92;105532;1252;73010;-59
2024/01/05 10:42:24;;;;;;;32.20;13.40;;;;;;;2.78;97.12;99730.92;105375;1254;235008;-58
2024/01/05 10:44:57;;;;;;;9.40;6.10;;;;;;;2.88;97.31;99722.11;105538;1253;70922;-58
2024/01/05 10:47:28;;;;;;;16.90;8.20;;;;;;;3.00;97.01;99716.23;105533;1253;69191;-58
2024/01/05 10:49:57;;;;;;;17.90;8.10;;;;;;;3.06;96.68;99710.76;105509;1255;69180;-59
2024/01/05 10:52:28;;;;;;;9.70;5.40;;;;;;;3.14;96.67;99713.91;105582;1255;74356;-58
2024/01/05 10:54:57;;;;;;;9.20;5.60;;;;;;;3.29;96.60;99713.98;105567;1253;80252;-58
2024/01/05 10:57:26;;;;;;;7.50;5.30;;;;;;;3.58;96.59;99705.64;105537;1253;71897;-58
2024/01/05 10:59:56;;;;;;;11.10;5.50;;;;;;;3.81;96.26;99706.91;105541;1253;69570;-58
2024/01/05 11:02:40;;;;;;;21.40;9.40;;;;;;;4.07;96.01;99698.42;105540;1256;69177;-58
2024/01/05 11:05:11;;;;;;;16.00;7.60;;;;;;;4.51;95.89;99694.48;105508;1253;71493;-58
2024/01/05 11:07:42;;;;;;;14.50;7.10;;;;;;;4.71;94.76;99690.88;105538;1256;82502;-58
2024/01/05 11:10:20;;;;;;;;;;;;;;;4.79;94.18;99691.05;105540;1254;71724;-58
2024/01/05 11:13:26;;;;;;;14.30;7.30;;;;;;;4.91;93.80;99688.33;105460;1253;69176;-58
2024/01/05 11:16:22;;;;;;;11.00;6.40;;;;;;;4.93;93.64;99683.77;105488;1255;69136;-58
2024/01/05 11:19:03;;;;;;;15.50;8.00;;;;;;;4.86;93.28;99680.67;105535;1253;74168;-58
2024/01/05 11:21:58;;;;;;;13.20;7.50;;;;;;;4.77;93.24;99678.80;105506;1255;82753;-58
2024/01/05 11:24:27;;;;;;;12.10;6.20;;;;;;;4.64;92.52;99682.23;105517;1254;73091;-58
2024/01/05 11:26:55;;;;;;;10.60;5.60;;;;;;;4.47;92.59;99681.09;105547;1256;69113;-58
2024/01/05 11:29:46;;;;;;;13.60;6.90;;;;;;;4.36;92.46;99679.96;105512;1256;69172;-58
2024/01/05 11:32:34;;;;;;;12.20;6.60;;;;;;;4.27;92.29;99676.52;105499;1254;74759;-58
2024/01/05 11:35:23;;;;;;;10.90;6.20;;;;;;;4.25;92.38;99672.95;105509;1255;82703;-58
2024/01/05 11:37:52;;;;;;;12.50;8.00;;;;;;;4.22;92.23;99659.69;105502;1253;71249;-58